createdAt,value
2023-05-15T00:00:37.845Z,995.8
2023-05-15T00:01:38.987Z,995.8
2023-05-15T00:02:40.466Z,995.8
2023-05-15T00:03:42.006Z,995.8
2023-05-15T00:04:43.631Z,995.8
2023-05-15T00:05:44.844Z,995.8
2023-05-15T00:06:46.009Z,995.8
2023-05-15T00:07:47.176Z,995.8
2023-05-15T00:08:48.362Z,995.8
2023-05-15T00:09:49.507Z,995.8
2023-05-15T00:11:02.262Z,995.8
2023-05-15T00:12:03.528Z,995.8
2023-05-15T00:13:04.671Z,995.8
2023-05-15T00:14:05.831Z,995.8
2023-05-15T00:15:06.998Z,995.8
2023-05-15T00:16:08.256Z,995.8
2023-05-15T00:17:09.594Z,995.8
2023-05-15T00:18:10.778Z,995.8
2023-05-15T00:19:12.131Z,995.8
2023-05-15T00:20:13.427Z,995.8
2023-05-15T00:21:14.600Z,995.8
2023-05-15T00:22:15.762Z,995.8
2023-05-15T00:23:16.988Z,995.8
2023-05-15T00:24:18.157Z,995.8
2023-05-15T00:25:19.316Z,995.8
2023-05-15T00:26:20.501Z,995.8
2023-05-15T00:27:21.690Z,995.8
2023-05-15T00:28:22.869Z,995.8
2023-05-15T00:29:24.038Z,995.8
2023-05-15T00:30:25.208Z,995.8
2023-05-15T00:31:26.444Z,995.8
2023-05-15T00:32:27.654Z,995.8
2023-05-15T00:33:28.798Z,995.8
2023-05-15T00:34:29.962Z,995.8
2023-05-15T00:35:31.126Z,995.8
2023-05-15T00:36:32.293Z,995.8
2023-05-15T00:37:33.461Z,995.8
2023-05-15T00:38:34.626Z,995.8
2023-05-15T00:39:35.788Z,995.7
2023-05-15T00:40:36.961Z,995.8
2023-05-15T00:41:38.158Z,995.8
2023-05-15T00:42:39.322Z,995.7
2023-05-15T00:43:40.464Z,995.7
2023-05-15T00:44:41.621Z,995.7
2023-05-15T00:45:42.791Z,995.7
2023-05-15T00:46:44.160Z,995.7
2023-05-15T00:47:45.352Z,995.8
2023-05-15T00:48:46.534Z,995.7
2023-05-15T00:49:47.699Z,995.7
2023-05-15T00:50:48.875Z,995.7
2023-05-15T00:51:50.035Z,995.7
2023-05-15T00:52:51.200Z,995.7
2023-05-15T00:53:52.582Z,995.7
2023-05-15T00:54:53.833Z,995.7
2023-05-15T00:55:54.998Z,995.7
2023-05-15T00:56:56.162Z,995.7
2023-05-15T00:57:57.376Z,995.7
2023-05-15T00:58:58.516Z,995.7
2023-05-15T00:59:59.683Z,995.7
2023-05-15T01:01:00.876Z,995.7
2023-05-15T01:02:02.046Z,995.7
2023-05-15T01:03:03.313Z,995.7
2023-05-15T01:04:04.670Z,995.7
2023-05-15T01:05:05.846Z,995.7
2023-05-15T01:06:06.998Z,995.7
2023-05-15T01:07:08.170Z,995.7
2023-05-15T01:08:09.712Z,995.7
2023-05-15T01:09:10.880Z,995.6
2023-05-15T01:10:12.045Z,995.6
2023-05-15T01:11:13.210Z,995.6
2023-05-15T01:12:14.378Z,995.6
2023-05-15T01:13:15.573Z,995.6
2023-05-15T01:14:16.710Z,995.6
2023-05-15T01:15:17.884Z,995.6
2023-05-15T01:16:19.040Z,995.6
2023-05-15T01:17:20.201Z,995.6
2023-05-15T01:18:21.532Z,995.6
2023-05-15T01:19:23.011Z,995.6
2023-05-15T01:20:24.296Z,995.5
2023-05-15T01:21:25.456Z,995.5
2023-05-15T01:22:26.620Z,995.5
2023-05-15T01:23:27.783Z,995.5
2023-05-15T01:24:28.954Z,995.5
2023-05-15T01:25:30.112Z,995.4
2023-05-15T01:26:31.275Z,995.5
2023-05-15T01:27:32.444Z,995.4
2023-05-15T01:28:33.636Z,995.5
2023-05-15T01:29:34.823Z,995.4
2023-05-15T01:30:35.995Z,995.4
2023-05-15T01:31:37.158Z,995.4
2023-05-15T01:32:38.375Z,995.5
2023-05-15T01:33:39.567Z,995.4
2023-05-15T01:34:40.732Z,995.4
2023-05-15T01:35:41.898Z,995.4
2023-05-15T01:36:43.061Z,995.4
2023-05-15T01:37:44.236Z,995.4
2023-05-15T01:38:45.396Z,995.4
2023-05-15T01:39:46.560Z,995.4
2023-05-15T01:40:47.723Z,995.3
2023-05-15T01:41:48.942Z,995.3
2023-05-15T01:42:50.066Z,995.3
2023-05-15T01:43:51.282Z,995.3
2023-05-15T01:44:52.446Z,995.3
2023-05-15T01:45:53.643Z,995.3
2023-05-15T01:46:54.843Z,995.3
2023-05-15T01:47:56.145Z,995.3
2023-05-15T01:48:57.322Z,995.3
2023-05-15T01:49:58.496Z,995.3
2023-05-15T01:50:59.666Z,995.3
2023-05-15T01:52:00.818Z,995.3
2023-05-15T01:53:01.992Z,995.3
2023-05-15T01:54:03.156Z,995.3
2023-05-15T01:55:04.341Z,995.3
2023-05-15T01:56:05.509Z,995.3
2023-05-15T01:57:06.681Z,995.3
2023-05-15T01:58:07.837Z,995.3
2023-05-15T01:59:09.028Z,995.3
2023-05-15T02:00:10.182Z,995.3
2023-05-15T02:01:11.342Z,995.3
2023-05-15T02:02:12.583Z,995.3
2023-05-15T02:03:13.932Z,995.3
2023-05-15T02:04:15.143Z,995.3
2023-05-15T02:05:16.317Z,995.2
2023-05-15T02:06:17.471Z,995.2
2023-05-15T02:07:18.636Z,995.2
2023-05-15T02:08:19.805Z,995.2
2023-05-15T02:09:20.966Z,995.2
2023-05-15T02:10:22.136Z,995.2
2023-05-15T02:11:23.298Z,995.2
2023-05-15T02:12:24.467Z,995.2
2023-05-15T02:13:25.634Z,995.2
2023-05-15T02:14:26.862Z,995.2
2023-05-15T02:15:28.328Z,995.2
2023-05-15T02:16:29.512Z,995.2
2023-05-15T02:17:30.819Z,995.1
2023-05-15T02:18:32.116Z,995.1
2023-05-15T02:19:33.306Z,995.1
2023-05-15T02:20:34.470Z,995.1
2023-05-15T02:21:35.634Z,995.1
2023-05-15T02:22:36.798Z,995.1
2023-05-15T02:23:37.969Z,995.2
2023-05-15T02:24:39.165Z,995.2
2023-05-15T02:25:40.320Z,995.2
2023-05-15T02:26:41.488Z,995.2
2023-05-15T02:27:42.659Z,995.2
2023-05-15T02:28:43.822Z,995.2
2023-05-15T02:29:45.016Z,995.2
2023-05-15T02:30:46.154Z,995.1
2023-05-15T02:31:47.337Z,995.1
2023-05-15T02:32:48.584Z,995.1
2023-05-15T02:33:49.723Z,995.1
2023-05-15T02:34:50.890Z,995.1
2023-05-15T02:35:54.248Z,995.1
2023-05-15T02:36:55.369Z,995.1
2023-05-15T02:37:56.548Z,995.1
2023-05-15T02:38:57.702Z,995.1
2023-05-15T02:39:58.862Z,995.1
2023-05-15T02:41:00.041Z,995.1
2023-05-15T02:42:01.199Z,995
2023-05-15T02:43:02.359Z,995
2023-05-15T02:44:03.597Z,995
2023-05-15T02:45:04.845Z,995
2023-05-15T02:46:06.079Z,995
2023-05-15T02:47:07.281Z,995
2023-05-15T02:48:08.524Z,995
2023-05-15T02:49:09.685Z,995
2023-05-15T02:50:10.926Z,995
2023-05-15T02:51:12.089Z,995
2023-05-15T02:52:13.252Z,995
2023-05-15T02:53:14.483Z,995
2023-05-15T02:54:15.677Z,995
2023-05-15T02:55:16.855Z,995
2023-05-15T02:56:18.007Z,995
2023-05-15T02:57:19.169Z,995
2023-05-15T02:58:20.339Z,995
2023-05-15T02:59:21.503Z,995
2023-05-15T03:00:22.699Z,995
2023-05-15T03:01:24.020Z,995
2023-05-15T03:02:25.354Z,995
2023-05-15T03:03:26.532Z,995
2023-05-15T03:04:27.730Z,994.9
2023-05-15T03:05:29.300Z,994.9
2023-05-15T03:06:30.462Z,994.9
2023-05-15T03:07:31.629Z,994.9
2023-05-15T03:08:32.804Z,994.9
2023-05-15T03:09:33.956Z,994.9
2023-05-15T03:10:35.531Z,994.8
2023-05-15T03:11:36.738Z,994.8
2023-05-15T03:12:37.887Z,994.8
2023-05-15T03:13:39.073Z,994.8
2023-05-15T03:14:40.229Z,994.8
2023-05-15T03:15:41.451Z,994.8
2023-05-15T03:16:42.709Z,994.8
2023-05-15T03:17:43.968Z,994.8
2023-05-15T03:18:45.212Z,994.8
2023-05-15T03:19:46.381Z,994.8
2023-05-15T03:20:47.550Z,994.8
2023-05-15T03:21:48.713Z,994.7
2023-05-15T03:22:49.880Z,994.7
2023-05-15T03:23:51.050Z,994.7
2023-05-15T03:24:52.212Z,994.7
2023-05-15T03:25:53.375Z,994.7
2023-05-15T03:26:54.557Z,994.7
2023-05-15T03:27:55.708Z,994.7
2023-05-15T03:28:56.874Z,994.7
2023-05-15T03:29:58.041Z,994.7
2023-05-15T03:30:59.319Z,994.7
2023-05-15T03:32:00.565Z,994.7
2023-05-15T03:33:01.758Z,994.6
2023-05-15T03:34:02.959Z,994.6
2023-05-15T03:35:04.116Z,994.6
2023-05-15T03:36:05.280Z,994.6
2023-05-15T03:37:06.451Z,994.6
2023-05-15T03:38:07.640Z,994.6
2023-05-15T03:39:08.776Z,994.6
2023-05-15T03:40:09.947Z,994.6
2023-05-15T03:41:11.126Z,994.6
2023-05-15T03:42:12.277Z,994.6
2023-05-15T03:43:13.441Z,994.6
2023-05-15T03:44:14.609Z,994.6
2023-05-15T03:45:15.775Z,994.6
2023-05-15T03:46:16.999Z,994.6
2023-05-15T03:47:18.165Z,994.6
2023-05-15T03:48:19.331Z,994.5
2023-05-15T03:49:20.513Z,994.5
2023-05-15T03:50:21.683Z,994.5
2023-05-15T03:51:22.839Z,994.5
2023-05-15T03:52:24.007Z,994.6
2023-05-15T03:53:25.172Z,994.6
2023-05-15T03:54:26.355Z,994.6
2023-05-15T03:55:27.666Z,994.6
2023-05-15T03:56:28.939Z,994.6
2023-05-15T03:57:30.098Z,994.6
2023-05-15T03:58:31.265Z,994.6
2023-05-15T03:59:32.434Z,994.6
2023-05-15T04:00:33.624Z,994.5
2023-05-15T04:01:51.226Z,994.5
2023-05-15T04:03:03.463Z,994.5
2023-05-15T04:04:04.686Z,994.6
2023-05-15T04:05:05.928Z,994.6
2023-05-15T04:06:07.133Z,994.5
2023-05-15T04:07:08.294Z,994.5
2023-05-15T04:08:09.457Z,994.5
2023-05-15T04:09:10.627Z,994.5
2023-05-15T04:10:11.831Z,994.5
2023-05-15T04:11:12.999Z,994.5
2023-05-15T04:12:14.170Z,994.5
2023-05-15T04:13:15.323Z,994.5
2023-05-15T04:14:16.508Z,994.5
2023-05-15T04:15:17.665Z,994.5
2023-05-15T04:16:18.837Z,994.5
2023-05-15T04:17:20.169Z,994.5
2023-05-15T04:18:21.393Z,994.5
2023-05-15T04:19:22.593Z,994.5
2023-05-15T04:20:23.753Z,994.5
2023-05-15T04:21:24.924Z,994.5
2023-05-15T04:22:26.091Z,994.5
2023-05-15T04:23:27.255Z,994.5
2023-05-15T04:24:28.420Z,994.5
2023-05-15T04:25:29.587Z,994.5
2023-05-15T04:26:30.797Z,994.5
2023-05-15T04:27:31.951Z,994.5
2023-05-15T04:28:33.114Z,994.5
2023-05-15T04:29:34.281Z,994.5
2023-05-15T04:30:35.445Z,994.5
2023-05-15T04:31:36.659Z,994.5
2023-05-15T04:32:37.972Z,994.5
2023-05-15T04:33:39.166Z,994.5
2023-05-15T04:34:40.337Z,994.5
2023-05-15T04:35:41.503Z,994.5
2023-05-15T04:36:43.486Z,994.5
2023-05-15T04:37:44.677Z,994.5
2023-05-15T04:38:45.855Z,994.5
2023-05-15T04:39:47.008Z,994.5
2023-05-15T04:40:48.185Z,994.5
2023-05-15T04:41:49.349Z,994.5
2023-05-15T04:42:50.521Z,994.5
2023-05-15T04:43:51.691Z,994.5
2023-05-15T04:44:52.852Z,994.5
2023-05-15T04:45:54.032Z,994.5
2023-05-15T04:46:55.218Z,994.5
2023-05-15T04:47:56.461Z,994.6
2023-05-15T04:48:57.716Z,994.6
2023-05-15T04:49:58.888Z,994.6
2023-05-15T04:51:00.174Z,994.6
2023-05-15T04:52:01.327Z,994.6
2023-05-15T04:53:02.491Z,994.5
2023-05-15T04:54:03.657Z,994.6
2023-05-15T04:55:04.828Z,994.5
2023-05-15T04:56:05.989Z,994.5
2023-05-15T04:57:07.188Z,994.5
2023-05-15T04:58:08.352Z,994.5
2023-05-15T04:59:09.520Z,994.6
2023-05-15T05:00:10.686Z,994.6
2023-05-15T05:01:11.988Z,994.6
2023-05-15T05:02:13.127Z,994.5
2023-05-15T05:03:14.506Z,994.6
2023-05-15T05:04:16.012Z,994.5
2023-05-15T05:05:17.325Z,994.6
2023-05-15T05:06:18.494Z,994.6
2023-05-15T05:07:19.659Z,994.6
2023-05-15T05:08:20.830Z,994.6
2023-05-15T05:09:21.993Z,994.6
2023-05-15T05:10:23.183Z,994.6
2023-05-15T05:11:24.339Z,994.5
2023-05-15T05:12:28.079Z,994.5
2023-05-15T05:13:29.462Z,994.5
2023-05-15T05:14:30.620Z,994.5
2023-05-15T05:15:31.793Z,994.4
2023-05-15T05:16:33.237Z,994.4
2023-05-15T05:17:34.673Z,994.4
2023-05-15T05:18:35.941Z,994.4
2023-05-15T05:19:37.128Z,994.4
2023-05-15T05:20:38.292Z,994.4
2023-05-15T05:21:39.454Z,994.4
2023-05-15T05:22:40.626Z,994.4
2023-05-15T05:23:41.792Z,994.4
2023-05-15T05:24:42.956Z,994.4
2023-05-15T05:25:44.119Z,994.5
2023-05-15T05:26:45.294Z,994.4
2023-05-15T05:27:46.462Z,994.4
2023-05-15T05:28:47.682Z,994.4
2023-05-15T05:29:48.851Z,994.4
2023-05-15T05:30:50.038Z,994.4
2023-05-15T05:31:51.345Z,994.4
2023-05-15T05:32:52.570Z,994.4
2023-05-15T05:33:53.839Z,994.4
2023-05-15T05:34:54.994Z,994.4
2023-05-15T05:35:56.141Z,994.4
2023-05-15T05:36:57.306Z,994.5
2023-05-15T05:37:58.477Z,994.4
2023-05-15T05:38:59.645Z,994.5
2023-05-15T05:40:00.826Z,994.5
2023-05-15T05:41:02.002Z,994.5
2023-05-15T05:42:03.234Z,994.4
2023-05-15T05:43:04.392Z,994.4
2023-05-15T05:44:05.573Z,994.4
2023-05-15T05:45:06.740Z,994.4
2023-05-15T05:46:07.902Z,994.4
2023-05-15T05:47:09.247Z,994.4
2023-05-15T05:48:10.505Z,994.4
2023-05-15T05:49:11.856Z,994.4
2023-05-15T05:50:12.992Z,994.4
2023-05-15T05:51:14.168Z,994.4
2023-05-15T05:52:15.384Z,994.4
2023-05-15T05:53:16.511Z,994.4
2023-05-15T05:54:17.688Z,994.4
2023-05-15T05:55:18.881Z,994.4
2023-05-15T05:56:20.040Z,994.4
2023-05-15T05:57:21.206Z,994.4
2023-05-15T05:58:26.608Z,994.4
2023-05-15T05:59:27.759Z,994.4
2023-05-15T06:00:28.952Z,994.4
2023-05-15T06:01:30.167Z,994.5
2023-05-15T06:02:31.497Z,994.5
2023-05-15T06:03:33.006Z,994.5
2023-05-15T06:04:34.928Z,994.5
2023-05-15T06:05:36.288Z,994.4
2023-05-15T06:06:37.481Z,994.4
2023-05-15T06:07:38.636Z,994.4
2023-05-15T06:08:39.800Z,994.4
2023-05-15T06:09:40.973Z,994.5
2023-05-15T06:10:42.130Z,994.4
2023-05-15T06:11:43.297Z,994.4
2023-05-15T06:12:44.462Z,994.5
2023-05-15T06:13:45.627Z,994.5
2023-05-15T06:14:46.792Z,994.5
2023-05-15T06:15:55.174Z,994.5
2023-05-15T06:16:56.399Z,994.5
2023-05-15T06:17:57.604Z,994.5
2023-05-15T06:18:58.831Z,994.5
2023-05-15T06:20:00.061Z,994.4
2023-05-15T06:21:04.325Z,994.4
2023-05-15T06:22:05.460Z,994.4
2023-05-15T06:23:06.628Z,994.4
2023-05-15T06:24:10.661Z,994.4
2023-05-15T06:25:11.789Z,994.4
2023-05-15T06:26:12.962Z,994.4
2023-05-15T06:27:14.139Z,994.4
2023-05-15T06:28:15.280Z,994.4
2023-05-15T06:29:16.457Z,994.4
2023-05-15T06:30:17.620Z,994.4
2023-05-15T06:31:18.818Z,994.4
2023-05-15T06:32:20.050Z,994.4
2023-05-15T06:33:21.201Z,994.4
2023-05-15T06:34:22.365Z,994.4
2023-05-15T06:35:32.435Z,994.4
2023-05-15T06:36:42.525Z,994.4
2023-05-15T06:37:43.712Z,994.4
2023-05-15T06:38:44.857Z,994.4
2023-05-15T06:39:46.030Z,994.4
2023-05-15T06:40:47.202Z,994.4
2023-05-15T06:41:48.358Z,994.4
2023-05-15T06:42:49.528Z,994.5
2023-05-15T06:43:50.734Z,994.4
2023-05-15T06:44:51.872Z,994.5
2023-05-15T06:45:53.032Z,994.4
2023-05-15T06:46:54.374Z,994.4
2023-05-15T06:47:55.709Z,994.4
2023-05-15T06:48:58.096Z,994.4
2023-05-15T06:49:59.261Z,994.4
2023-05-15T06:51:00.684Z,994.4
2023-05-15T06:52:04.639Z,994.4
2023-05-15T06:53:05.803Z,994.4
2023-05-15T06:54:12.125Z,994.4
2023-05-15T06:55:13.249Z,994.4
2023-05-15T06:56:14.419Z,994.4
2023-05-15T06:57:15.585Z,994.4
2023-05-15T06:58:16.746Z,994.4
2023-05-15T06:59:17.915Z,994.4
2023-05-15T07:00:19.076Z,994.4
2023-05-15T07:01:20.338Z,994.4
2023-05-15T07:02:21.497Z,994.4
2023-05-15T07:03:22.709Z,994.4
2023-05-15T07:04:23.949Z,994.4
2023-05-15T07:05:25.495Z,994.4
2023-05-15T07:06:27.131Z,994.4
2023-05-15T07:08:37.263Z,994.4
2023-05-15T07:09:41.139Z,994.4
2023-05-15T07:10:42.280Z,994.4
2023-05-15T07:11:43.468Z,994.4
2023-05-15T07:12:44.624Z,994.4
2023-05-15T07:13:45.792Z,994.4
2023-05-15T07:14:46.967Z,994.3
2023-05-15T07:15:48.121Z,994.4
2023-05-15T07:16:49.411Z,994.4
2023-05-15T07:17:53.568Z,994.4
2023-05-15T07:18:54.910Z,994.4
2023-05-15T07:19:56.063Z,994.4
2023-05-15T07:20:57.227Z,994.4
2023-05-15T07:21:58.545Z,994.4
2023-05-15T07:23:00.381Z,994.4
2023-05-15T07:24:01.546Z,994.3
2023-05-15T07:25:02.712Z,994.3
2023-05-15T07:26:03.873Z,994.3
2023-05-15T07:27:05.044Z,994.3
2023-05-15T07:28:06.214Z,994.3
2023-05-15T07:29:07.371Z,994.3
2023-05-15T07:30:08.540Z,994.3
2023-05-15T07:31:09.755Z,994.3
2023-05-15T07:32:10.908Z,994.3
2023-05-15T07:33:12.072Z,994.2
2023-05-15T07:34:13.232Z,994.2
2023-05-15T07:35:14.403Z,994.2
2023-05-15T07:36:15.568Z,994.2
2023-05-15T07:37:17.605Z,994.2
2023-05-15T07:38:21.714Z,994.2
2023-05-15T07:39:23.296Z,994.2
2023-05-15T07:40:24.843Z,994.2
2023-05-15T07:41:28.490Z,994.2
2023-05-15T07:42:29.649Z,994.2
2023-05-15T07:43:30.823Z,994.2
2023-05-15T07:44:31.988Z,994.2
2023-05-15T07:46:34.466Z,994.2
2023-05-15T07:47:36.116Z,994.3
2023-05-15T07:48:37.299Z,994.3
2023-05-15T07:49:38.466Z,994.3
2023-05-15T07:50:39.631Z,994.3
2023-05-15T07:51:40.811Z,994.3
2023-05-15T07:52:42.012Z,994.3
2023-05-15T07:53:43.147Z,994.3
2023-05-15T07:54:44.316Z,994.3
2023-05-15T07:55:45.494Z,994.3
2023-05-15T07:56:46.636Z,994.2
2023-05-15T07:57:54.307Z,994.2
2023-05-15T07:58:55.485Z,994.2
2023-05-15T07:59:56.686Z,994.2
2023-05-15T08:00:57.863Z,994.2
2023-05-15T08:01:59.053Z,994.2
2023-05-15T08:03:00.459Z,994.2
2023-05-15T08:04:04.919Z,994.2
2023-05-15T08:05:06.212Z,994.2
2023-05-15T08:06:07.382Z,994.2
2023-05-15T08:07:08.543Z,994.2
2023-05-15T08:08:09.741Z,994.2
2023-05-15T08:09:10.873Z,994.2
2023-05-15T08:10:12.038Z,994.2
2023-05-15T08:11:13.227Z,994.1
2023-05-15T08:12:14.376Z,994.1
2023-05-15T08:13:15.542Z,994.1
2023-05-15T08:14:16.902Z,994.1
2023-05-15T08:15:18.034Z,994.1
2023-05-15T08:16:19.269Z,994.1
2023-05-15T08:17:20.696Z,994.1
2023-05-15T08:18:24.971Z,994.1
2023-05-15T08:19:26.195Z,994.1
2023-05-15T08:20:27.460Z,994.1
2023-05-15T08:22:06.797Z,994.1
2023-05-15T08:23:18.436Z,994
2023-05-15T08:24:19.589Z,994
2023-05-15T08:25:20.757Z,994
2023-05-15T08:26:21.899Z,994
2023-05-15T08:27:23.067Z,994
2023-05-15T08:28:24.236Z,994
2023-05-15T08:29:25.502Z,994
2023-05-15T08:30:26.665Z,994
2023-05-15T08:31:27.922Z,994
2023-05-15T08:32:29.144Z,994
2023-05-15T08:33:30.553Z,994
2023-05-15T08:34:31.691Z,994
2023-05-15T08:35:35.719Z,993.9
2023-05-15T08:36:39.075Z,993.9
2023-05-15T08:37:40.753Z,993.9
2023-05-15T08:38:42.145Z,993.9
2023-05-15T08:39:43.283Z,994
2023-05-15T08:40:47.381Z,993.9
2023-05-15T08:41:48.543Z,993.9
2023-05-15T08:42:49.717Z,993.9
2023-05-15T08:43:53.805Z,993.9
2023-05-15T08:44:54.992Z,993.9
2023-05-15T08:45:56.477Z,993.9
2023-05-15T08:46:57.645Z,993.9
2023-05-15T08:47:58.991Z,993.9
2023-05-15T08:49:00.524Z,993.9
2023-05-15T08:51:04.472Z,993.9
2023-05-15T08:52:05.634Z,993.8
2023-05-15T08:53:06.867Z,993.9
2023-05-15T08:54:08.203Z,993.9
2023-05-15T08:55:09.370Z,993.8
2023-05-15T08:56:10.528Z,993.8
2023-05-15T08:57:14.498Z,993.8
2023-05-15T08:58:15.695Z,993.8
2023-05-15T08:59:16.838Z,993.8
2023-05-15T09:00:18.028Z,993.8
2023-05-15T09:01:19.412Z,993.8
2023-05-15T09:02:20.575Z,993.8
2023-05-15T09:03:22.056Z,993.8
2023-05-15T09:04:23.322Z,993.8
2023-05-15T09:05:25.003Z,993.8
2023-05-15T09:06:26.671Z,993.8
2023-05-15T09:07:27.802Z,993.8
2023-05-15T09:08:29.035Z,993.7
2023-05-15T09:09:30.255Z,993.7
2023-05-15T09:10:31.388Z,993.7
2023-05-15T09:11:32.585Z,993.7
2023-05-15T09:12:33.719Z,993.7
2023-05-15T09:13:34.940Z,993.6
2023-05-15T09:14:36.180Z,993.7
2023-05-15T09:15:37.313Z,993.6
2023-05-15T09:16:38.584Z,993.6
2023-05-15T09:17:39.846Z,993.6
2023-05-15T09:18:41.136Z,993.6
2023-05-15T09:19:42.335Z,993.6
2023-05-15T09:20:43.489Z,993.6
2023-05-15T09:21:44.655Z,993.6
2023-05-15T09:22:45.830Z,993.6
2023-05-15T09:23:47.009Z,993.6
2023-05-15T09:24:48.436Z,993.6
2023-05-15T09:25:49.621Z,993.6
2023-05-15T09:26:50.781Z,993.6
2023-05-15T09:27:51.945Z,993.6
2023-05-15T09:28:53.111Z,993.6
2023-05-15T09:29:54.302Z,993.6
2023-05-15T09:30:55.483Z,993.6
2023-05-15T09:31:56.767Z,993.5
2023-05-15T09:32:57.963Z,993.5
2023-05-15T09:33:59.198Z,993.5
2023-05-15T09:35:00.387Z,993.5
2023-05-15T09:36:01.550Z,993.5
2023-05-15T09:37:02.714Z,993.5
2023-05-15T09:38:03.915Z,993.5
2023-05-15T09:39:05.077Z,993.5
2023-05-15T09:40:06.258Z,993.5
2023-05-15T09:41:07.448Z,993.5
2023-05-15T09:42:08.624Z,993.4
2023-05-15T09:43:09.817Z,993.4
2023-05-15T09:44:10.965Z,993.4
2023-05-15T09:45:14.518Z,993.4
2023-05-15T09:46:15.939Z,993.4
2023-05-15T09:47:17.754Z,993.4
2023-05-15T09:48:19.266Z,993.4
2023-05-15T09:49:20.464Z,993.4
2023-05-15T09:50:21.661Z,993.4
2023-05-15T09:51:22.814Z,993.4
2023-05-15T09:52:24.003Z,993.4
2023-05-15T09:53:25.149Z,993.4
2023-05-15T09:54:26.366Z,993.4
2023-05-15T09:55:27.649Z,993.4
2023-05-15T09:56:29.056Z,993.4
2023-05-15T09:57:30.220Z,993.4
2023-05-15T09:58:31.457Z,993.3
2023-05-15T09:59:32.601Z,993.3
2023-05-15T10:00:36.303Z,993.3
2023-05-15T10:01:50.677Z,993.4
2023-05-15T10:02:51.954Z,993.3
2023-05-15T10:03:53.155Z,993.3
2023-05-15T10:04:54.298Z,993.3
2023-05-15T10:05:55.534Z,993.3
2023-05-15T10:06:56.789Z,993.2
2023-05-15T10:07:57.966Z,993.2
2023-05-15T10:08:59.147Z,993.3
2023-05-15T10:10:00.341Z,993.3
2023-05-15T10:11:01.735Z,993.3
2023-05-15T10:12:03.390Z,993.3
2023-05-15T10:13:04.530Z,993.3
2023-05-15T10:14:05.698Z,993.3
2023-05-15T10:15:06.861Z,993.2
2023-05-15T10:16:08.201Z,993.2
2023-05-15T10:17:09.552Z,993.2
2023-05-15T10:18:10.831Z,993.1
2023-05-15T10:19:12.165Z,993.2
2023-05-15T10:20:13.490Z,993.2
2023-05-15T10:21:14.669Z,993.2
2023-05-15T10:22:15.838Z,993.2
2023-05-15T10:23:16.984Z,993.2
2023-05-15T10:24:18.180Z,993.2
2023-05-15T10:25:22.073Z,993.2
2023-05-15T10:26:23.260Z,993.2
2023-05-15T10:27:27.487Z,993.2
2023-05-15T10:28:28.656Z,993.2
2023-05-15T10:29:29.824Z,993.2
2023-05-15T10:30:31.232Z,993.2
2023-05-15T10:31:35.346Z,993.1
2023-05-15T10:32:37.652Z,993.1
2023-05-15T10:33:38.842Z,993.1
2023-05-15T10:34:40.037Z,993.1
2023-05-15T10:35:41.222Z,993.1
2023-05-15T10:36:43.627Z,993.1
2023-05-15T10:37:44.813Z,993.1
2023-05-15T10:38:45.975Z,993.1
2023-05-15T10:39:47.144Z,993.1
2023-05-15T10:40:48.375Z,993.1
2023-05-15T10:41:49.568Z,993
2023-05-15T10:42:50.711Z,993.1
2023-05-15T10:43:51.869Z,993.1
2023-05-15T10:44:53.031Z,993
2023-05-15T10:45:54.198Z,993
2023-05-15T10:46:55.501Z,993
2023-05-15T10:47:56.825Z,993
2023-05-15T10:48:58.025Z,993
2023-05-15T10:49:59.203Z,993
2023-05-15T10:51:00.368Z,993
2023-05-15T10:52:01.599Z,993
2023-05-15T10:53:02.824Z,992.9
2023-05-15T10:54:04.039Z,992.9
2023-05-15T10:55:05.229Z,992.9
2023-05-15T10:56:06.527Z,992.9
2023-05-15T10:57:07.864Z,992.9
2023-05-15T10:58:09.015Z,992.9
2023-05-15T10:59:10.183Z,992.9
2023-05-15T11:00:11.351Z,992.9
2023-05-15T11:01:14.604Z,992.8
2023-05-15T11:02:15.773Z,992.8
2023-05-15T11:03:17.447Z,992.8
2023-05-15T11:04:18.877Z,992.8
2023-05-15T11:05:20.057Z,992.8
2023-05-15T11:06:26.095Z,992.8
2023-05-15T11:07:27.235Z,992.8
2023-05-15T11:08:38.505Z,992.8
2023-05-15T11:09:48.368Z,992.8
2023-05-15T11:10:49.509Z,992.7
2023-05-15T11:11:50.691Z,992.7
2023-05-15T11:12:51.909Z,992.7
2023-05-15T11:13:53.034Z,992.7
2023-05-15T11:14:54.202Z,992.7
2023-05-15T11:15:55.365Z,992.7
2023-05-15T11:16:56.568Z,992.6
2023-05-15T11:17:57.820Z,992.6
2023-05-15T11:18:59.124Z,992.6
2023-05-15T11:20:00.343Z,992.6
2023-05-15T11:21:01.551Z,992.6
2023-05-15T11:22:02.715Z,992.6
2023-05-15T11:23:03.881Z,992.6
2023-05-15T11:24:05.048Z,992.5
2023-05-15T11:25:06.209Z,992.5
2023-05-15T11:26:07.373Z,992.5
2023-05-15T11:27:08.547Z,992.5
2023-05-15T11:28:09.754Z,992.5
2023-05-15T11:29:10.895Z,992.5
2023-05-15T11:30:12.081Z,992.4
2023-05-15T11:31:13.240Z,992.4
2023-05-15T11:32:14.489Z,992.4
2023-05-15T11:33:15.737Z,992.4
2023-05-15T11:34:17.166Z,992.4
2023-05-15T11:35:27.345Z,992.4
2023-05-15T11:36:28.485Z,992.4
2023-05-15T11:37:29.657Z,992.3
2023-05-15T11:38:30.818Z,992.4
2023-05-15T11:39:32.013Z,992.3
2023-05-15T11:40:33.184Z,992.3
2023-05-15T11:41:34.354Z,992.3
2023-05-15T11:42:35.524Z,992.3
2023-05-15T11:43:36.696Z,992.2
2023-05-15T11:44:37.845Z,992.2
2023-05-15T11:45:39.164Z,992.3
2023-05-15T11:46:40.452Z,992.3
2023-05-15T11:47:41.720Z,992.3
2023-05-15T11:48:42.923Z,992.2
2023-05-15T11:49:44.077Z,992.2
2023-05-15T11:50:45.241Z,992.2
2023-05-15T11:51:46.452Z,992.2
2023-05-15T11:52:47.588Z,992.2
2023-05-15T11:53:48.786Z,992.2
2023-05-15T11:54:49.964Z,992.2
2023-05-15T11:55:51.222Z,992.2
2023-05-15T11:56:52.471Z,992.2
2023-05-15T11:57:53.752Z,992.2
2023-05-15T11:58:57.145Z,992.2
2023-05-15T12:00:00.594Z,992.2
2023-05-15T12:01:02.002Z,992.2
2023-05-15T12:02:03.182Z,992.2
2023-05-15T12:03:04.552Z,992.2
2023-05-15T12:04:06.215Z,992.1
2023-05-15T12:05:08.046Z,992.1
2023-05-15T12:06:09.274Z,992.1
2023-05-15T12:07:10.438Z,992.1
2023-05-15T12:08:11.601Z,992.2
2023-05-15T12:09:12.767Z,992.2
2023-05-15T12:10:14.009Z,992.1
2023-05-15T12:11:15.139Z,992.1
2023-05-15T12:12:16.311Z,992.1
2023-05-15T12:13:17.472Z,992.1
2023-05-15T12:14:18.673Z,992.1
2023-05-15T12:15:19.805Z,992.1
2023-05-15T12:16:21.054Z,992.1
2023-05-15T12:17:22.220Z,992.1
2023-05-15T12:18:23.418Z,992.1
2023-05-15T12:19:24.684Z,992.1
2023-05-15T12:20:26.205Z,992.1
2023-05-15T12:21:27.800Z,992.2
2023-05-15T12:22:29.000Z,992.2
2023-05-15T12:23:30.169Z,992.1
2023-05-15T12:24:31.359Z,992.1
2023-05-15T12:25:32.507Z,992.1
2023-05-15T12:26:33.675Z,992.1
2023-05-15T12:27:34.848Z,992.1
2023-05-15T12:28:36.019Z,992.1
2023-05-15T12:29:37.203Z,992.1
2023-05-15T12:30:38.346Z,992.1
2023-05-15T12:31:39.627Z,992.1
2023-05-15T12:32:40.942Z,992.1
2023-05-15T12:33:42.112Z,992.1
2023-05-15T12:34:43.276Z,992.1
2023-05-15T12:35:44.443Z,992.1
2023-05-15T12:36:45.609Z,992.1
2023-05-15T12:37:46.778Z,992.1
2023-05-15T12:38:47.947Z,992.1
2023-05-15T12:39:49.155Z,992.1
2023-05-15T12:40:50.291Z,992.1
2023-05-15T12:41:51.453Z,992.1
2023-05-15T12:42:52.812Z,992.1
2023-05-15T12:43:53.967Z,992.1
2023-05-15T12:44:55.149Z,992.1
2023-05-15T12:45:56.368Z,992.1
2023-05-15T12:46:57.670Z,992.1
2023-05-15T12:47:59.051Z,992.1
2023-05-15T12:49:00.264Z,992.1
2023-05-15T12:50:01.479Z,992.1
2023-05-15T12:51:02.634Z,992.1
2023-05-15T12:52:03.815Z,992.1
2023-05-15T12:53:05.007Z,992.1
2023-05-15T12:54:06.164Z,992.1
2023-05-15T12:55:07.343Z,992.1
2023-05-15T12:56:10.799Z,992.1
2023-05-15T12:57:11.963Z,992.2
2023-05-15T12:58:13.133Z,992.2
2023-05-15T12:59:14.297Z,992.2
2023-05-15T13:00:15.668Z,992.2
2023-05-15T13:01:17.359Z,992.2
2023-05-15T13:02:23.255Z,992.2
2023-05-15T13:03:24.685Z,992.2
2023-05-15T13:04:26.325Z,992.3
2023-05-15T13:05:27.493Z,992.3
2023-05-15T13:06:47.108Z,992.3
2023-05-15T13:07:49.173Z,992.3
2023-05-15T13:08:50.343Z,992.3
2023-05-15T13:09:53.681Z,992.3
2023-05-15T13:10:54.856Z,992.3
2023-05-15T13:11:56.028Z,992.4
2023-05-15T13:12:57.236Z,992.3
2023-05-15T13:13:58.366Z,992.3
2023-05-15T13:14:59.530Z,992.3
2023-05-15T13:16:00.854Z,992.3
2023-05-15T13:17:02.041Z,992.3
2023-05-15T13:18:03.277Z,992.3
2023-05-15T13:19:04.602Z,992.3